Time;durP1;ratioP1;P1;durP2;ratioP2;P2;SDS_P1;SDS_P2;PMS_P1;PMS_P2;Temp;Humidity;BMP_temperature;BMP_pressure;BME280_temperature;BME280_humidity;BME280_pressure;Samples;Min_cycle;Max_cycle;Signal;HPM_P1;HPM_P2
2022/05/26 00:02:00;;;;;;;5.03;2.10;;;15.20;99.90;;;;;;4991032;28;20034;-77
2022/05/26 00:04:27;;;;;;;4.15;2.72;;;15.20;99.90;;;;;;4992132;28;20018;-77
2022/05/26 00:06:53;;;;;;;5.38;2.58;;;15.20;99.90;;;;;;4992616;28;20033;-77
2022/05/26 00:09:18;;;;;;;3.42;2.47;;;15.20;99.90;;;;;;4991668;28;20039;-77
2022/05/26 00:11:44;;;;;;;6.10;2.58;;;15.20;99.90;;;;;;4992980;28;20073;-77
2022/05/26 00:14:10;;;;;;;5.32;3.10;;;15.20;99.90;;;;;;4991172;28;20091;-77
2022/05/26 00:16:38;;;;;;;5.63;3.13;;;15.10;99.90;;;;;;4975844;28;20046;-77
2022/05/26 00:19:04;;;;;;;5.82;2.80;;;15.10;99.90;;;;;;4990168;28;20113;-77
2022/05/26 00:21:30;;;;;;;8.68;3.25;;;15.20;99.90;;;;;;4991129;28;20030;-77
2022/05/26 00:23:57;;;;;;;5.60;3.03;;;15.20;99.90;;;;;;4990974;28;20022;-76
2022/05/26 00:26:23;;;;;;;4.40;2.60;;;15.20;99.90;;;;;;4989029;28;20019;-77
2022/05/26 00:28:49;;;;;;;5.15;2.97;;;15.20;99.90;;;;;;4992575;28;20027;-77
2022/05/26 00:31:15;;;;;;;5.82;3.10;;;15.20;99.90;;;;;;4992103;28;20033;-77
2022/05/26 00:33:41;;;;;;;5.75;2.97;;;15.20;99.90;;;;;;4989978;28;20502;-77
2022/05/26 00:36:09;;;;;;;9.10;3.88;;;15.20;99.90;;;;;;4992328;28;20034;-78
2022/05/26 00:38:35;;;;;;;3.33;2.70;;;15.20;99.90;;;;;;4993651;28;20030;-77
2022/05/26 00:41:10;;;;;;;4.45;2.92;;;15.20;99.90;;;;;;4990626;28;20030;-77
2022/05/26 00:43:46;;;;;;;7.45;3.83;;;15.20;99.90;;;;;;4989669;28;20026;-77
2022/05/26 00:46:30;;;;;;;7.75;3.53;;;15.30;99.90;;;;;;4992497;28;20030;-77
2022/05/26 00:48:59;;;;;;;8.63;4.03;;;15.20;99.90;;;;;;4990885;28;20058;-77
2022/05/26 00:51:32;;;;;;;7.05;4.00;;;15.30;99.90;;;;;;4990088;28;20455;-77
2022/05/26 00:54:03;;;;;;;6.30;3.67;;;15.20;99.90;;;;;;4992339;28;20026;-77
2022/05/26 00:56:40;;;;;;;9.65;4.70;;;15.20;99.90;;;;;;4990382;28;20052;-77
2022/05/26 00:59:26;;;;;;;6.38;3.92;;;15.30;99.90;;;;;;4992238;28;20038;-77
2022/05/26 01:01:53;;;;;;;7.22;3.80;;;15.30;99.90;;;;;;4988937;28;20026;-77
2022/05/26 01:04:22;;;;;;;6.22;4.13;;;15.20;99.90;;;;;;4989514;28;20145;-77
2022/05/26 01:06:57;;;;;;;7.40;4.63;;;15.20;99.90;;;;;;4989794;28;20026;-77
2022/05/26 01:09:23;;;;;;;5.85;4.28;;;15.30;99.90;;;;;;4991579;28;20562;-77
2022/05/26 01:11:49;;;;;;;5.82;4.28;;;15.20;99.90;;;;;;4992073;28;20066;-77
2022/05/26 01:14:20;;;;;;;8.52;4.10;;;15.20;99.90;;;;;;4991435;28;20034;-77
2022/05/26 01:17:01;;;;;;;;;;;15.20;99.90;;;;;;4993989;28;20057;-77
2022/05/26 01:19:55;;;;;;;7.33;4.57;;;15.30;99.90;;;;;;4989995;28;19910;-77
2022/05/26 01:22:49;;;;;;;6.03;3.47;;;15.20;99.90;;;;;;4989195;28;20132;-77
2022/05/26 01:25:40;;;;;;;5.55;4.10;;;15.20;99.90;;;;;;4990590;28;20022;-77
2022/05/26 01:28:24;;;;;;;7.85;3.72;;;15.30;99.90;;;;;;4973907;28;20481;-76
2022/05/26 01:31:08;;;;;;;5.78;4.30;;;15.30;99.90;;;;;;4989807;28;20580;-77
2022/05/26 01:33:52;;;;;;;8.88;4.68;;;15.30;99.90;;;;;;4991350;28;20027;-76
2022/05/26 01:36:51;;;;;;;4.38;3.67;;;15.20;99.90;;;;;;4992074;28;20031;-76
2022/05/26 01:39:58;;;;;;;6.32;3.88;;;15.10;99.90;;;;;;5010841;28;20045;-77
2022/05/26 01:42:42;;;;;;;5.80;3.80;;;15.10;99.90;;;;;;5014173;28;20042;-77
2022/05/26 01:45:35;;;;;;;4.82;3.88;;;15.10;99.90;;;;;;5013644;28;20026;-77
2022/05/26 01:48:31;;;;;;;5.82;4.00;;;15.20;99.90;;;;;;5015553;28;20038;-77
2022/05/26 01:51:14;;;;;;;7.85;3.88;;;15.20;99.90;;;;;;4994052;28;20022;-77
2022/05/26 01:54:01;;;;;;;4.90;4.22;;;15.20;99.90;;;;;;4993690;28;20127;-77
2022/05/26 01:56:32;;;;;;;7.63;4.80;;;15.20;99.90;;;;;;4988026;28;20273;-77
2022/05/26 01:59:15;;;;;;;7.18;4.75;;;15.20;99.90;;;;;;4989104;28;20057;-77
2022/05/26 02:01:50;;;;;;;7.30;4.80;;;15.20;99.90;;;;;;4991804;28;20026;-77
2022/05/26 02:04:26;;;;;;;7.15;4.15;;;15.20;99.90;;;;;;4987462;28;20332;-77
2022/05/26 02:07:03;;;;;;;7.22;5.38;;;15.20;99.90;;;;;;4988232;28;20022;-77
2022/05/26 02:09:38;;;;;;;6.97;4.85;;;15.20;99.90;;;;;;4990842;28;20118;-77
2022/05/26 02:12:08;;;;;;;7.78;4.60;;;15.20;99.90;;;;;;4987603;28;20113;-76
2022/05/26 02:14:45;;;;;;;9.10;4.85;;;15.20;99.90;;;;;;4991237;28;20104;-77
2022/05/26 02:17:31;;;;;;;10.57;5.43;;;15.20;99.90;;;;;;4998209;28;20027;-77
2022/05/26 02:20:08;;;;;;;7.28;5.25;;;15.20;99.90;;;;;;4992443;28;20030;-77
2022/05/26 02:22:56;;;;;;;9.35;5.55;;;15.20;99.90;;;;;;4988180;28;20030;-77
2022/05/26 02:25:25;;;;;;;7.55;5.20;;;15.20;99.90;;;;;;4988907;28;20030;-77
2022/05/26 02:27:54;;;;;;;9.63;5.57;;;15.20;99.90;;;;;;4989059;28;20030;-77
2022/05/26 02:30:22;;;;;;;10.23;6.30;;;15.20;99.90;;;;;;4986253;28;20121;-77
2022/05/26 02:32:50;;;;;;;8.68;5.43;;;15.20;99.90;;;;;;4989503;28;20032;-77
2022/05/26 02:35:31;;;;;;;9.75;5.70;;;15.20;99.90;;;;;;4989040;28;20113;-77
2022/05/26 02:38:19;;;;;;;15.52;6.50;;;15.10;99.90;;;;;;4972358;28;20509;-77
2022/05/26 02:40:45;;;;;;;7.65;5.40;;;15.10;99.90;;;;;;4988057;28;20121;-77
2022/05/26 02:43:16;;;;;;;6.88;5.40;;;15.10;99.90;;;;;;4989548;28;20026;-77
2022/05/26 02:46:18;;;;;;;8.10;5.10;;;15.20;99.90;;;;;;4989628;28;20397;-77
2022/05/26 02:49:04;;;;;;;7.53;5.20;;;15.20;99.90;;;;;;4990165;28;20026;-77
2022/05/26 02:51:49;;;;;;;11.40;5.38;;;15.20;99.90;;;;;;4988200;28;20027;-76
2022/05/26 02:54:17;;;;;;;8.02;5.20;;;15.20;99.90;;;;;;4988847;28;20084;-77
2022/05/26 02:56:49;;;;;;;9.48;5.57;;;15.20;99.90;;;;;;4989367;28;20082;-77
2022/05/26 02:59:35;;;;;;;8.82;5.63;;;15.20;99.90;;;;;;4987672;28;20034;-77
2022/05/26 03:02:34;;;;;;;9.45;6.03;;;15.20;99.90;;;;;;4987204;28;20080;-77
2022/05/26 03:05:19;;;;;;;7.65;5.35;;;15.20;99.90;;;;;;4979296;28;20038;-77
2022/05/26 03:07:48;;;;;;;12.27;6.55;;;15.20;99.90;;;;;;4990265;28;20069;-78
2022/05/26 03:10:15;;;;;;;12.07;6.78;;;15.10;99.90;;;;;;4988405;28;20031;-77
2022/05/26 03:12:41;;;;;;;11.55;5.90;;;15.00;99.90;;;;;;4988518;28;20491;-77
2022/05/26 03:15:08;;;;;;;10.43;5.45;;;15.00;99.90;;;;;;4985802;28;20041;-77
2022/05/26 03:17:34;;;;;;;9.27;5.97;;;15.10;99.90;;;;;;4988152;28;20033;-76
2022/05/26 03:20:00;;;;;;;6.55;5.00;;;15.10;99.90;;;;;;4986785;28;20062;-78
2022/05/26 03:22:26;;;;;;;9.63;5.47;;;15.10;99.90;;;;;;4988507;28;20058;-77
2022/05/26 03:24:53;;;;;;;8.85;5.05;;;15.10;99.90;;;;;;5004220;28;20153;-77
2022/05/26 03:27:19;;;;;;;11.25;6.00;;;15.10;99.90;;;;;;4990281;28;20070;-77
2022/05/26 03:29:44;;;;;;;9.60;6.32;;;15.10;99.90;;;;;;4989893;28;20022;-77
2022/05/26 03:32:10;;;;;;;10.02;5.93;;;15.20;99.90;;;;;;4991395;28;20057;-77
2022/05/26 03:42:49;;;;;;;12.07;5.82;;;15.20;99.90;;;;;;4988279;28;20046;-76
2022/05/26 03:45:19;;;;;;;9.82;5.75;;;15.20;99.90;;;;;;4988658;28;20050;-77
2022/05/26 03:47:45;;;;;;;8.18;5.32;;;15.20;99.90;;;;;;4987607;28;20113;-76
2022/05/26 03:50:11;;;;;;;6.97;4.82;;;15.20;99.90;;;;;;4986263;28;20113;-77
2022/05/26 03:52:36;;;;;;;9.50;5.95;;;15.20;99.90;;;;;;4971586;28;20098;-77
2022/05/26 03:55:02;;;;;;;9.30;5.97;;;15.10;99.90;;;;;;4986811;28;20050;-76
2022/05/26 03:57:29;;;;;;;10.43;6.05;;;15.20;99.90;;;;;;4987971;28;20455;-76
2022/05/26 03:59:55;;;;;;;11.00;6.15;;;15.20;99.90;;;;;;4990480;28;20557;-76
2022/05/26 04:02:21;;;;;;;9.60;5.68;;;15.20;99.90;;;;;;4992637;28;20030;-77
2022/05/26 04:04:47;;;;;;;11.18;5.63;;;15.20;99.90;;;;;;4992764;28;20026;-77
2022/05/26 04:07:13;;;;;;;11.45;5.50;;;15.30;99.90;;;;;;4989207;28;20505;-76
2022/05/26 04:09:42;;;;;;;12.98;6.25;;;15.20;99.90;;;;;;4991517;28;20047;-77
2022/05/26 04:12:09;;;;;;;12.55;5.78;;;15.30;99.90;;;;;;4991238;28;20117;-77
2022/05/26 04:14:35;;;;;;;7.03;4.97;;;15.20;99.90;;;;;;4992855;28;20066;-76
2022/05/26 04:17:01;;;;;;;8.93;5.05;;;15.20;99.90;;;;;;4993489;28;20050;-77
2022/05/26 04:19:27;;;;;;;11.95;5.97;;;15.30;99.90;;;;;;4991498;28;20030;-77
2022/05/26 04:24:37;;;;;;;13.82;5.65;;;15.30;99.90;;;;;;4990250;28;20537;-76
2022/05/26 04:27:05;;;;;;;10.27;5.65;;;15.30;99.90;;;;;;4992267;28;20031;-77
2022/05/26 04:29:32;;;;;;;10.50;5.97;;;15.30;99.90;;;;;;4974164;28;20053;-77
2022/05/26 04:31:57;;;;;;;10.25;5.47;;;15.30;99.90;;;;;;4992807;28;20022;-77
2022/05/26 04:34:24;;;;;;;10.23;5.07;;;15.30;99.90;;;;;;4992179;28;20027;-77
2022/05/26 04:36:49;;;;;;;7.53;5.05;;;15.30;99.90;;;;;;5001483;28;20052;-78
2022/05/26 04:39:16;;;;;;;10.20;4.82;;;15.30;99.90;;;;;;5006356;28;20093;-78
2022/05/26 04:41:42;;;;;;;8.30;4.97;;;15.30;99.90;;;;;;4995194;28;20033;-78
2022/05/26 04:44:12;;;;;;;11.55;5.20;;;15.30;99.90;;;;;;4992717;28;20030;-78
2022/05/26 04:46:38;;;;;;;10.60;5.50;;;15.30;99.90;;;;;;4992102;28;20018;-78
2022/05/26 04:49:04;;;;;;;9.85;4.80;;;15.40;99.90;;;;;;4990800;28;20050;-78
2022/05/26 04:51:31;;;;;;;10.13;5.68;;;15.30;99.90;;;;;;4991452;28;20034;-78
2022/05/26 04:53:57;;;;;;;8.52;4.97;;;15.40;99.90;;;;;;4990186;28;20023;-77
2022/05/26 04:56:23;;;;;;;10.55;4.75;;;15.40;99.90;;;;;;4989149;28;20030;-78
2022/05/26 04:58:50;;;;;;;9.63;5.28;;;15.40;99.90;;;;;;4992283;28;20084;-78
2022/05/26 05:01:18;;;;;;;9.15;4.07;;;15.50;99.90;;;;;;4992230;28;20459;-78
2022/05/26 05:03:44;;;;;;;8.95;4.82;;;15.50;99.90;;;;;;4990876;28;20102;-78
2022/05/26 05:06:10;;;;;;;12.57;4.65;;;15.60;99.90;;;;;;4991816;28;20101;-78
2022/05/26 05:08:36;;;;;;;15.18;5.30;;;15.60;99.90;;;;;;4989974;28;20193;-77
2022/05/26 05:11:03;;;;;;;11.15;5.47;;;15.60;99.90;;;;;;4991524;28;20027;-78
2022/05/26 05:13:29;;;;;;;11.25;5.03;;;15.70;99.90;;;;;;4989321;28;20042;-78
2022/05/26 05:16:01;;;;;;;15.23;5.15;;;15.80;99.90;;;;;;4973978;28;20034;-78
2022/05/26 05:18:27;;;;;;;8.80;3.47;;;15.70;99.90;;;;;;4989690;28;20054;-77
2022/05/26 05:20:56;;;;;;;11.05;4.10;;;15.80;99.90;;;;;;4988921;28;20066;-78
2022/05/26 05:23:23;;;;;;;16.30;4.40;;;15.70;99.90;;;;;;4991475;28;20122;-77
2022/05/26 05:25:52;;;;;;;10.27;4.15;;;15.70;99.90;;;;;;4989541;28;20066;-77
2022/05/26 05:28:30;;;;;;;13.27;4.25;;;15.70;99.90;;;;;;4990709;28;20109;-77
2022/05/26 05:31:07;;;;;;;13.60;3.75;;;15.70;99.90;;;;;;4989197;28;20506;-76
2022/05/26 05:33:40;;;;;;;9.40;3.95;;;15.70;99.90;;;;;;4987652;28;20069;-77
2022/05/26 05:36:09;;;;;;;14.52;5.05;;;15.70;99.90;;;;;;4989138;28;20026;-77
2022/05/26 05:38:38;;;;;;;9.98;3.45;;;15.70;99.90;;;;;;4989556;28;20097;-77
2022/05/26 05:41:05;;;;;;;9.73;3.78;;;15.60;99.90;;;;;;4989358;28;20402;-77
2022/05/26 05:43:32;;;;;;;11.80;3.42;;;15.60;99.90;;;;;;4991307;28;20169;-77
2022/05/26 05:45:58;;;;;;;10.10;3.42;;;15.70;99.90;;;;;;4989811;28;20033;-76
2022/05/26 05:48:24;;;;;;;6.70;3.40;;;15.70;99.90;;;;;;4989574;28;20418;-78
2022/05/26 05:50:50;;;;;;;12.13;3.15;;;15.70;99.90;;;;;;4991126;28;20116;-78
2022/05/26 05:53:16;;;;;;;11.40;3.08;;;15.70;99.90;;;;;;4991029;28;20023;-78
2022/05/26 05:55:42;;;;;;;12.82;3.25;;;15.70;99.90;;;;;;4990300;28;20371;-77
2022/05/26 05:58:09;;;;;;;9.40;3.20;;;15.80;99.90;;;;;;4990683;28;20149;-77
2022/05/26 06:00:36;;;;;;;9.68;3.30;;;15.70;99.90;;;;;;4990060;28;20046;-78
2022/05/26 06:03:03;;;;;;;8.75;3.28;;;15.80;99.90;;;;;;4992666;28;20525;-78
2022/05/26 06:05:28;;;;;;;12.85;3.20;;;15.80;99.90;;;;;;4988752;28;20038;-77
2022/05/26 06:07:54;;;;;;;10.32;3.13;;;15.90;99.90;;;;;;4989823;28;20494;-77
2022/05/26 06:10:20;;;;;;;9.57;2.70;;;15.90;99.90;;;;;;4971984;28;20126;-76
2022/05/26 06:12:48;;;;;;;7.60;3.42;;;16.00;99.90;;;;;;4991265;28;20062;-77
2022/05/26 06:15:14;;;;;;;8.68;2.58;;;16.10;99.90;;;;;;4989702;28;20503;-77
2022/05/26 06:17:40;;;;;;;9.27;2.70;;;16.10;99.90;;;;;;4990689;28;20037;-77
2022/05/26 06:20:07;;;;;;;9.32;2.50;;;16.10;99.90;;;;;;4988181;28;20299;-77
2022/05/26 06:22:37;;;;;;;10.32;2.95;;;16.10;99.90;;;;;;4990400;28;20097;-78
2022/05/26 06:25:03;;;;;;;11.38;2.78;;;16.20;99.90;;;;;;4989635;28;20038;-77
2022/05/26 06:30:17;;;;;;;7.00;2.60;;;16.20;99.90;;;;;;4989268;28;20379;-78
2022/05/26 06:38:32;;;;;;;7.43;2.20;;;16.40;99.90;;;;;;4990020;28;20041;-77
2022/05/26 06:42:05;;;;;;;8.10;2.30;;;16.40;99.90;;;;;;4990710;28;20101;-77
2022/05/26 06:43:43;;;;;;;9.80;2.45;;;16.60;99.90;;;;;;4990689;28;20057;-77
2022/05/26 06:46:09;;;;;;;7.75;2.33;;;16.70;99.90;;;;;;4989066;28;20375;-77
2022/05/26 06:48:34;;;;;;;10.10;2.60;;;16.70;99.90;;;;;;4973255;28;20409;-78
2022/05/26 06:51:00;;;;;;;9.52;2.25;;;16.70;99.90;;;;;;4990780;28;20029;-77
2022/05/26 06:53:25;;;;;;;7.03;2.40;;;16.70;99.90;;;;;;4989316;28;20089;-77
2022/05/26 06:55:51;;;;;;;14.80;3.00;;;16.70;99.90;;;;;;4989236;28;20038;-77
2022/05/26 06:58:16;;;;;;;10.65;3.00;;;16.60;99.90;;;;;;4974792;28;20026;-77
2022/05/26 07:00:43;;;;;;;9.60;2.45;;;16.50;99.90;;;;;;5004363;28;20018;-78
2022/05/26 07:03:09;;;;;;;7.97;2.15;;;16.60;99.90;;;;;;4995008;28;20026;-78
2022/05/26 07:05:37;;;;;;;6.68;2.13;;;16.60;99.90;;;;;;4989739;28;20383;-78
2022/05/26 07:08:03;;;;;;;9.10;2.28;;;16.60;99.90;;;;;;4989020;28;20066;-78
2022/05/26 07:10:30;;;;;;;6.22;2.20;;;16.60;99.90;;;;;;4988770;28;20085;-79
2022/05/26 07:12:56;;;;;;;9.00;2.83;;;16.70;99.90;;;;;;4989792;28;20141;-77
2022/05/26 07:15:21;;;;;;;12.75;2.88;;;16.80;99.90;;;;;;4991455;28;20141;-78
2022/05/26 07:17:48;;;;;;;10.02;2.25;;;16.80;99.90;;;;;;4991485;28;20085;-77
2022/05/26 07:20:13;;;;;;;6.75;1.75;;;16.80;99.90;;;;;;4989882;28;20023;-78
2022/05/26 07:22:39;;;;;;;5.30;1.33;;;16.80;99.90;;;;;;4991904;28;20018;-78
2022/05/26 07:25:05;;;;;;;9.38;1.88;;;16.90;99.90;;;;;;4995169;28;20109;-77
2022/05/26 07:27:31;;;;;;;7.50;1.52;;;16.80;99.90;;;;;;4995056;28;20065;-76
2022/05/26 07:29:57;;;;;;;7.97;1.95;;;16.80;99.90;;;;;;4995306;28;20030;-77
2022/05/26 07:32:23;;;;;;;7.22;1.77;;;16.80;99.90;;;;;;4999485;28;20437;-75
2022/05/26 07:34:49;;;;;;;6.50;1.67;;;16.80;99.90;;;;;;4995643;28;20034;-78
2022/05/26 07:42:43;;;;;;;10.27;1.95;;;16.80;99.30;;;;;;4993751;28;20026;-77
2022/05/26 07:45:09;;;;;;;5.65;1.50;;;16.70;98.80;;;;;;4995453;28;20040;-78
2022/05/26 07:47:36;;;;;;;3.92;1.60;;;16.90;98.50;;;;;;4995772;28;20022;-78
2022/05/26 07:50:04;;;;;;;4.60;1.35;;;17.00;97.50;;;;;;4992821;28;20033;-76
2022/05/26 07:52:30;;;;;;;4.88;1.42;;;17.20;97.70;;;;;;4991388;28;20063;-76
2022/05/26 07:54:55;;;;;;;5.32;1.20;;;17.10;97.30;;;;;;4992805;28;20027;-77
2022/05/26 07:57:24;;;;;;;5.50;1.40;;;17.10;96.70;;;;;;4990403;28;20068;-77
2022/05/26 07:59:51;;;;;;;3.03;1.08;;;17.10;96.30;;;;;;4991693;28;20026;-77
2022/05/26 08:02:17;;;;;;;4.30;1.10;;;17.20;95.10;;;;;;4993696;28;20494;-77
2022/05/26 08:04:43;;;;;;;3.92;1.33;;;17.30;94.70;;;;;;4993987;28;20038;-77
2022/05/26 08:07:09;;;;;;;1.83;0.77;;;17.40;94.20;;;;;;4991146;28;20022;-76
2022/05/26 08:09:37;;;;;;;5.30;1.30;;;17.40;92.10;;;;;;4989458;28;20101;-77
2022/05/26 08:12:05;;;;;;;5.18;1.00;;;17.40;90.80;;;;;;4992459;28;20070;-78
2022/05/26 08:14:30;;;;;;;3.95;0.98;;;17.20;92.00;;;;;;4990624;28;20116;-78
2022/05/26 08:16:56;;;;;;;5.57;0.80;;;17.30;91.60;;;;;;4992714;28;20553;-78
2022/05/26 08:19:23;;;;;;;3.80;0.80;;;17.40;91.10;;;;;;4995091;28;20038;-77
2022/05/26 08:21:49;;;;;;;3.08;1.13;;;17.40;91.60;;;;;;4994639;28;20505;-78
2022/05/26 08:24:17;;;;;;;5.57;1.08;;;17.40;91.40;;;;;;4992944;28;20096;-78
2022/05/26 08:26:43;;;;;;;4.78;1.30;;;17.30;91.80;;;;;;4991380;28;20034;-77
2022/05/26 08:29:08;;;;;;;4.03;1.15;;;17.40;92.10;;;;;;4993043;28;20077;-77
2022/05/26 08:31:34;;;;;;;3.38;0.90;;;17.50;90.70;;;;;;4990643;28;20030;-76
2022/05/26 08:33:59;;;;;;;3.45;0.70;;;17.60;89.00;;;;;;4992883;28;20053;-77
2022/05/26 08:36:25;;;;;;;2.83;0.85;;;17.50;89.40;;;;;;4993480;28;20023;-76
2022/05/26 08:38:52;;;;;;;6.18;1.13;;;17.60;89.60;;;;;;4992334;28;20406;-77
2022/05/26 08:41:25;;;;;;;4.82;1.20;;;17.60;90.30;;;;;;4991263;28;20157;-78
2022/05/26 08:43:53;;;;;;;6.18;1.05;;;17.70;90.20;;;;;;4991714;28;20022;-77
2022/05/26 08:46:20;;;;;;;4.15;0.90;;;17.80;90.00;;;;;;4991763;28;20031;-77
2022/05/26 08:49:00;;;;;;;5.50;1.13;;;17.90;90.30;;;;;;4991223;28;20455;-77
2022/05/26 08:51:53;;;;;;;6.60;1.00;;;17.90;90.10;;;;;;4990964;28;20026;-77
2022/05/26 08:54:28;;;;;;;4.05;0.80;;;17.90;89.70;;;;;;4991859;28;20030;-78
2022/05/26 08:56:57;;;;;;;4.43;1.10;;;18.00;90.20;;;;;;4993264;28;20025;-78
2022/05/26 08:59:31;;;;;;;2.63;0.85;;;18.00;86.60;;;;;;4992425;28;20368;-78
2022/05/26 09:02:00;;;;;;;7.35;1.08;;;18.10;84.50;;;;;;4989291;28;20045;-77
2022/05/26 09:04:26;;;;;;;4.00;1.25;;;18.20;83.20;;;;;;4992782;28;20093;-77
2022/05/26 09:15:15;;;;;;;4.50;1.13;;;18.40;81.60;;;;;;4992128;28;20034;-77
2022/05/26 09:17:41;;;;;;;3.17;0.73;;;18.30;81.20;;;;;;4987797;28;20388;-77
2022/05/26 09:20:25;;;;;;;2.50;0.80;;;18.20;82.20;;;;;;5010487;28;20046;-77
2022/05/26 09:22:51;;;;;;;2.40;0.93;;;18.20;82.70;;;;;;5009585;28;20042;-77
2022/05/26 09:25:46;;;;;;;3.38;1.08;;;18.20;81.60;;;;;;4993751;28;20406;-77
2022/05/26 09:28:12;;;;;;;2.75;0.80;;;18.30;81.00;;;;;;4991578;28;20490;-76
2022/05/26 09:30:39;;;;;;;5.63;0.93;;;18.30;80.90;;;;;;4992651;28;20065;-77
2022/05/26 09:33:29;;;;;;;4.43;0.85;;;18.30;79.10;;;;;;4992797;28;20023;-79
2022/05/26 09:36:14;;;;;;;4.03;0.93;;;18.30;80.20;;;;;;4989869;28;20554;-78
2022/05/26 09:38:40;;;;;;;5.90;0.95;;;18.10;80.50;;;;;;4975168;28;20125;-78
2022/05/26 09:41:07;;;;;;;6.63;1.05;;;18.00;81.30;;;;;;4992382;28;20110;-77
2022/05/26 09:43:33;;;;;;;3.03;1.05;;;17.90;82.60;;;;;;4991487;28;20085;-77
2022/05/26 09:46:07;;;;;;;3.47;0.85;;;17.90;83.30;;;;;;4990821;28;20031;-77
2022/05/26 09:48:36;;;;;;;4.97;0.98;;;17.90;84.50;;;;;;4995824;28;20032;-77
2022/05/26 09:51:13;;;;;;;4.55;0.95;;;18.00;84.80;;;;;;4972733;28;20034;-77
2022/05/26 09:53:43;;;;;;;2.47;0.82;;;18.20;85.10;;;;;;4990126;28;20026;-77
2022/05/26 09:56:12;;;;;;;3.80;0.88;;;18.60;84.50;;;;;;4990317;28;20026;-78
2022/05/26 09:58:42;;;;;;;4.22;0.90;;;18.70;82.80;;;;;;4990511;28;20027;-78
2022/05/26 10:01:26;;;;;;;2.95;0.85;;;18.90;81.00;;;;;;4991498;28;20062;-78
2022/05/26 10:04:10;;;;;;;5.43;0.80;;;18.60;81.60;;;;;;4991873;28;20030;-78
2022/05/26 10:07:06;;;;;;;5.18;1.15;;;18.60;83.10;;;;;;4991378;28;20049;-78
2022/05/26 10:09:50;;;;;;;2.28;0.90;;;18.60;83.80;;;;;;4990751;28;20022;-77
2022/05/26 10:12:41;;;;;;;8.57;1.48;;;18.70;82.70;;;;;;4988229;28;20097;-78
2022/05/26 10:15:22;;;;;;;4.33;1.43;;;18.70;82.20;;;;;;4976383;28;20038;-78
2022/05/26 10:18:03;;;;;;;4.97;1.45;;;18.70;83.10;;;;;;4992339;28;20030;-77
2022/05/26 10:20:51;;;;;;;5.45;1.55;;;18.80;82.40;;;;;;4990687;28;20026;-77
2022/05/26 10:23:44;;;;;;;3.40;1.02;;;18.80;82.80;;;;;;4990274;28;20026;-76
2022/05/26 10:26:42;;;;;;;5.20;1.10;;;19.00;82.40;;;;;;4990985;28;20026;-77
2022/05/26 10:29:19;;;;;;;3.05;1.10;;;19.00;81.90;;;;;;4989024;28;20105;-77
2022/05/26 10:32:04;;;;;;;5.13;1.35;;;18.90;83.40;;;;;;4992037;28;20030;-78
2022/05/26 10:35:08;;;;;;;4.88;1.00;;;19.00;83.20;;;;;;5001453;28;20018;-78
2022/05/26 10:37:45;;;;;;;2.75;0.73;;;19.20;83.50;;;;;;4997715;28;20038;-77
2022/05/26 10:40:32;;;;;;;5.63;1.30;;;19.30;83.30;;;;;;5002112;28;20042;-77
2022/05/26 10:43:06;;;;;;;3.17;0.82;;;19.30;82.40;;;;;;5001290;28;20035;-78
2022/05/26 10:45:41;;;;;;;5.20;1.30;;;19.30;78.70;;;;;;4983407;28;20327;-77
2022/05/26 10:48:20;;;;;;;18.80;1.90;;;19.10;80.50;;;;;;4999357;28;20086;-78
2022/05/26 10:51:17;;;;;;;7.55;1.40;;;19.10;80.00;;;;;;5002199;28;20026;-77
2022/05/26 10:53:50;;;;;;;5.80;1.30;;;19.10;79.30;;;;;;4992020;28;20037;-77
2022/05/26 10:56:19;;;;;;;13.65;2.10;;;19.20;81.60;;;;;;4991279;28;20069;-77
2022/05/26 10:58:49;;;;;;;11.73;1.92;;;19.40;80.80;;;;;;4986948;28;20418;-76
2022/05/26 11:01:23;;;;;;;4.53;1.00;;;19.60;79.30;;;;;;4989640;28;20022;-77
2022/05/26 11:03:53;;;;;;;5.22;1.30;;;19.90;77.40;;;;;;4986699;28;20023;-78
2022/05/26 11:06:27;;;;;;;3.88;0.80;;;20.20;77.20;;;;;;4987642;28;20494;-77
2022/05/26 11:09:00;;;;;;;3.70;1.00;;;20.30;73.80;;;;;;4989779;28;20034;-78
2022/05/26 11:11:41;;;;;;;3.50;1.40;;;20.30;74.40;;;;;;4993761;28;20018;-77
2022/05/26 11:17:38;;;;;;;2.55;0.80;;;20.00;74.60;;;;;;4991215;28;20501;-77
2022/05/26 11:20:08;;;;;;;4.55;1.23;;;19.70;75.60;;;;;;4994142;28;20160;-77
2022/05/26 11:22:34;;;;;;;3.95;0.88;;;19.60;76.50;;;;;;4994984;28;20033;-76
2022/05/26 11:25:01;;;;;;;4.07;1.15;;;19.50;77.80;;;;;;4977294;28;20031;-77
2022/05/26 11:27:42;;;;;;;5.18;1.13;;;19.70;77.60;;;;;;4995096;28;20037;-77
2022/05/26 11:38:35;;;;;;;2.22;0.82;;;23.80;57.50;;;;;;4991794;28;20072;-78
2022/05/26 11:41:01;;;;;;;3.50;1.40;;;22.60;59.20;;;;;;4995767;28;20554;-77
2022/05/26 11:43:57;;;;;;;7.75;1.30;;;21.70;60.80;;;;;;5003408;28;20041;-78
2022/05/26 11:46:41;;;;;;;4.78;0.85;;;21.00;63.70;;;;;;4998295;28;20049;-76
2022/05/26 11:49:10;;;;;;;4.25;1.17;;;20.10;65.30;;;;;;4992328;28;20398;-76
2022/05/26 11:51:40;;;;;;;3.92;1.08;;;19.60;67.20;;;;;;4990804;28;20022;-76
2022/05/26 11:54:09;;;;;;;3.40;1.50;;;19.20;69.10;;;;;;4991903;28;20494;-77
2022/05/26 11:56:45;;;;;;;4.18;1.42;;;18.90;71.10;;;;;;4993607;28;20030;-77
2022/05/26 11:59:32;;;;;;;3.88;1.02;;;18.70;72.80;;;;;;4990554;28;20042;-77
2022/05/26 12:02:07;;;;;;;4.55;1.08;;;18.60;74.00;;;;;;4992797;28;20030;-77
2022/05/26 12:04:37;;;;;;;5.63;1.00;;;18.40;75.80;;;;;;4975794;28;20046;-77
2022/05/26 12:07:22;;;;;;;4.43;1.00;;;18.30;77.00;;;;;;4991853;28;20117;-77
2022/05/26 12:09:57;;;;;;;3.42;0.75;;;18.20;78.50;;;;;;4994087;28;20105;-77
2022/05/26 12:12:23;;;;;;;9.02;1.38;;;18.00;80.20;;;;;;4991709;28;20022;-77
2022/05/26 12:14:54;;;;;;;2.80;0.98;;;18.00;81.60;;;;;;4993826;28;20122;-78
2022/05/26 12:17:56;;;;;;;6.13;1.52;;;18.00;82.80;;;;;;4992168;28;20025;-78
2022/05/26 12:20:21;;;;;;;8.98;1.83;;;18.00;84.30;;;;;;4957009;28;20034;-77
2022/05/26 12:22:47;;;;;;;10.00;2.30;;;18.20;84.90;;;;;;4955846;28;20031;-78
2022/05/26 12:25:16;;;;;;;5.40;1.17;;;18.30;85.20;;;;;;4974565;28;20067;-78
2022/05/26 12:27:54;;;;;;;3.65;1.25;;;18.40;86.30;;;;;;4976347;28;20077;-78
2022/05/26 12:30:46;;;;;;;4.68;1.20;;;18.40;86.50;;;;;;4957850;28;20466;-77
2022/05/26 12:33:20;;;;;;;7.75;1.17;;;18.40;86.90;;;;;;4955965;28;20154;-77
2022/05/26 12:36:10;;;;;;;7.47;1.15;;;18.20;87.60;;;;;;4967737;28;20465;-77
2022/05/26 12:38:53;;;;;;;4.95;1.23;;;18.10;89.20;;;;;;4955036;28;20422;-78
2022/05/26 12:42:01;;;;;;;5.40;1.13;;;17.90;90.20;;;;;;4953806;28;20113;-78
2022/05/26 12:44:37;;;;;;;5.45;1.15;;;17.80;90.20;;;;;;4953824;28;20048;-77
2022/05/26 12:47:38;;;;;;;3.92;1.20;;;17.90;90.30;;;;;;4971101;28;20151;-77
2022/05/26 12:50:12;;;;;;;6.65;1.02;;;18.00;90.00;;;;;;4970911;28;20035;-77
2022/05/26 12:52:46;;;;;;;5.97;1.30;;;18.10;90.20;;;;;;4954469;28;20026;-77
2022/05/26 12:55:18;;;;;;;6.20;1.20;;;18.10;90.40;;;;;;4983242;28;20062;-76
2022/05/26 12:58:09;;;;;;;3.20;1.00;;;18.20;91.20;;;;;;4992438;28;20423;-77
2022/05/26 13:00:42;;;;;;;5.82;1.40;;;18.50;90.70;;;;;;4975777;28;20141;-76
2022/05/26 13:03:30;;;;;;;7.10;0.82;;;18.70;90.40;;;;;;4991811;28;20034;-77
2022/05/26 13:06:26;;;;;;;3.72;1.00;;;18.50;90.20;;;;;;4981671;28;20042;-77
2022/05/26 13:09:15;;;;;;;6.55;1.40;;;18.40;90.60;;;;;;4991601;28;20061;-77
2022/05/26 13:11:57;;;;;;;2.72;1.15;;;18.50;90.60;;;;;;4992363;28;20037;-78
2022/05/26 13:14:28;;;;;;;3.75;1.08;;;18.40;91.00;;;;;;4992765;28;20026;-78
2022/05/26 13:17:15;;;;;;;3.50;0.98;;;18.20;91.60;;;;;;4994973;28;20069;-78
2022/05/26 13:19:47;;;;;;;3.50;1.00;;;18.10;91.80;;;;;;4996275;28;20068;-78
2022/05/26 13:22:30;;;;;;;4.10;1.45;;;18.00;92.40;;;;;;4994132;28;20033;-77
2022/05/26 13:25:23;;;;;;;4.63;1.17;;;17.90;92.90;;;;;;4991230;28;20045;-78
2022/05/26 13:27:51;;;;;;;4.75;1.40;;;17.80;93.60;;;;;;4989636;28;20610;-77
2022/05/26 13:33:11;;;;;;;4.93;1.30;;;18.20;93.90;;;;;;4992032;28;20482;-78
2022/05/26 13:35:44;;;;;;;2.83;1.45;;;18.40;93.20;;;;;;4994631;28;20109;-78
2022/05/26 13:38:36;;;;;;;4.68;1.40;;;18.40;92.90;;;;;;4992371;28;20022;-77
2022/05/26 13:41:03;;;;;;;4.05;1.10;;;18.30;93.30;;;;;;4971217;28;20033;-77
2022/05/26 13:43:32;;;;;;;3.83;1.30;;;18.20;93.40;;;;;;4974003;28;20054;-77
2022/05/26 13:45:59;;;;;;;4.22;0.98;;;18.00;93.90;;;;;;4985864;28;20510;-77
2022/05/26 13:48:40;;;;;;;6.68;1.23;;;18.00;94.20;;;;;;4989733;28;20053;-77
2022/05/26 13:51:43;;;;;;;8.27;1.58;;;17.90;94.60;;;;;;4988489;28;20030;-76
2022/05/26 13:54:30;;;;;;;4.53;1.52;;;18.00;95.10;;;;;;4989161;28;20130;-77
2022/05/26 13:57:01;;;;;;;6.68;1.10;;;18.70;93.80;;;;;;4989214;28;20026;-77
2022/05/26 13:59:29;;;;;;;3.88;0.95;;;18.90;92.80;;;;;;4989262;28;20038;-77
2022/05/26 14:02:05;;;;;;;5.80;1.23;;;19.00;92.70;;;;;;4989309;28;20049;-77
2022/05/26 14:04:39;;;;;;;5.75;1.35;;;18.90;93.00;;;;;;4986189;28;20027;-77